Time;durP1;ratioP1;P1;durP2;ratioP2;P2;SDS_P1;SDS_P2;PMS_P1;PMS_P2;Temp;Humidity;BMP_temperature;BMP_pressure;BME280_temperature;BME280_humidity;BME280_pressure;Samples;Min_cycle;Max_cycle;Signal;HPM_P1;HPM_P2
2022/05/09 00:00:42;;;;;;;1.75;0.65;;;;;;;10.33;53.72;102507.34;5094708;28;20056;-53
2022/05/09 00:03:11;;;;;;;2.80;0.80;;;;;;;10.32;53.81;102509.06;5093843;28;20052;-56
2022/05/09 00:05:38;;;;;;;4.80;1.10;;;;;;;10.32;53.53;102510.78;5094452;28;20052;-55
2022/05/09 00:08:06;;;;;;;2.55;0.70;;;;;;;10.32;53.87;102511.66;5094251;28;20059;-54
2022/05/09 00:10:35;;;;;;;2.22;0.73;;;;;;;10.33;53.48;102510.81;5094546;28;20058;-56
2022/05/09 00:13:05;;;;;;;2.28;0.75;;;;;;;10.30;53.62;102509.88;5094211;28;20048;-56
2022/05/09 00:15:35;;;;;;;2.65;0.70;;;;;;;10.27;53.95;102504.63;5078866;28;20642;-56
2022/05/09 00:18:06;;;;;;;3.80;0.75;;;;;;;10.25;53.48;102512.38;5073765;28;20064;-55
2022/05/09 00:20:35;;;;;;;3.80;1.00;;;;;;;10.24;53.60;102512.34;5074460;28;20063;-56
2022/05/09 00:23:04;;;;;;;4.78;0.75;;;;;;;10.25;53.11;102511.50;5074086;28;20063;-56
2022/05/09 00:25:34;;;;;;;1.70;0.70;;;;;;;10.26;53.34;102513.25;5073756;28;20350;-56
2022/05/09 00:28:02;;;;;;;2.58;0.68;;;;;;;10.28;53.83;102512.44;5073965;28;20143;-55
2022/05/09 00:30:32;;;;;;;2.97;0.80;;;;;;;10.30;53.93;102509.88;5073301;28;20064;-57
2022/05/09 00:35:55;;;;;;;3.25;0.90;;;;;;;10.23;53.74;102520.97;5073904;28;20048;-57
2022/05/09 00:38:26;;;;;;;3.95;0.98;;;;;;;10.24;54.12;102517.53;5073807;28;20056;-56
2022/05/09 00:43:48;;;;;;;3.80;0.77;;;;;;;10.18;54.42;102519.97;5083699;28;20468;-57
2022/05/09 00:46:15;;;;;;;4.20;1.05;;;;;;;10.19;54.55;102524.31;5056643;28;20418;-56
2022/05/09 00:48:43;;;;;;;5.70;0.93;;;;;;;10.22;54.43;102527.00;5072576;28;20052;-56
2022/05/09 00:51:23;;;;;;;3.13;1.15;;;;;;;10.22;53.95;102527.00;5075894;28;20066;-56
2022/05/09 00:53:51;;;;;;;4.45;1.15;;;;;;;10.19;53.83;102529.50;5093812;28;20063;-55
2022/05/09 00:56:23;;;;;;;4.53;1.02;;;;;;;10.17;54.44;102533.75;5093420;28;20488;-53
2022/05/09 00:59:00;;;;;;;3.97;1.02;;;;;;;10.17;53.66;102533.75;5093948;28;20087;-54
2022/05/09 01:01:38;;;;;;;5.30;0.90;;;;;;;10.12;53.83;102534.53;5093762;28;20070;-53
2022/05/09 01:04:13;;;;;;;4.40;0.85;;;;;;;10.09;54.02;102538.78;5093464;28;20434;-56
2022/05/09 01:06:45;;;;;;;4.55;0.95;;;;;;;10.11;53.66;102540.56;5093655;28;20058;-54
2022/05/09 01:09:15;;;;;;;2.78;1.35;;;;;;;10.08;54.35;102534.44;5093228;28;20440;-56
2022/05/09 01:11:52;;;;;;;4.68;1.10;;;;;;;10.08;53.29;102537.03;5090483;28;20423;-56
2022/05/09 01:14:23;;;;;;;3.65;0.93;;;;;;;10.07;54.03;102533.56;5093072;28;20052;-56
2022/05/09 01:16:52;;;;;;;2.00;0.68;;;;;;;10.05;53.60;102532.66;5092993;28;20364;-56
2022/05/09 01:19:32;;;;;;;5.47;1.13;;;;;;;10.06;53.61;102537.00;5093293;28;20083;-55
2022/05/09 01:22:04;;;;;;;7.38;1.27;;;;;;;10.06;54.14;102539.59;5093084;28;20430;-57
2022/05/09 01:24:33;;;;;;;6.53;1.25;;;;;;;10.03;53.40;102536.94;5093258;28;20055;-56
2022/05/09 01:27:03;;;;;;;10.05;1.40;;;;;;;10.00;54.02;102534.28;5088402;28;20378;-56
2022/05/09 01:29:43;;;;;;;5.50;1.42;;;;;;;9.95;53.93;102535.88;5085474;28;20062;-53
2022/05/09 01:32:14;;;;;;;7.20;1.20;;;;;;;9.94;54.58;102549.69;5072516;28;20053;-53
2022/05/09 01:34:48;;;;;;;8.10;1.33;;;;;;;9.95;54.07;102542.78;5072910;28;20056;-54
2022/05/09 01:37:24;;;;;;;5.95;1.33;;;;;;;9.95;54.27;102546.25;5072680;28;20394;-56
2022/05/09 01:39:54;;;;;;;6.68;1.30;;;;;;;9.96;54.54;102552.31;5087545;28;20131;-54
2022/05/09 01:42:25;;;;;;;12.40;2.30;;;;;;;9.95;54.35;102546.25;5110622;28;20078;-55
2022/05/09 01:44:53;;;;;;;7.68;1.60;;;;;;;9.91;54.83;102552.19;5113203;28;20134;-56
2022/05/09 01:50:07;;;;;;;6.60;1.50;;;;;;;9.78;54.85;102555.31;5092831;28;20128;-56
2022/05/09 01:52:39;;;;;;;12.45;1.20;;;;;;;9.75;54.94;102561.28;5092906;28;20048;-53
2022/05/09 01:55:09;;;;;;;7.40;1.73;;;;;;;9.75;54.94;102555.25;5088376;28;20044;-56
2022/05/09 01:57:38;;;;;;;6.38;1.48;;;;;;;9.72;55.49;102560.34;5072197;28;20457;-56
2022/05/09 02:00:11;;;;;;;5.97;1.00;;;;;;;9.68;55.62;102558.53;5072211;28;20453;-56
2022/05/09 02:02:47;;;;;;;10.90;1.48;;;;;;;9.67;55.24;102561.94;5072293;28;20507;-55
2022/05/09 02:05:15;;;;;;;;;;;;;;;9.61;55.79;102556.63;5072867;28;20044;-56
2022/05/09 02:07:56;;;;;;;4.22;1.08;;;;;;;9.62;55.79;102553.19;5072758;28;19924;-54
2022/05/09 02:10:24;;;;;;;3.55;1.02;;;;;;;9.60;55.88;102545.41;5086209;28;20055;-56
2022/05/09 02:12:54;;;;;;;4.32;0.85;;;;;;;9.63;55.93;102549.78;5092862;28;20059;-57
2022/05/09 02:15:31;;;;;;;4.57;0.88;;;;;;;9.66;55.30;102549.84;5093098;28;20054;-57
2022/05/09 02:18:02;;;;;;;3.47;1.00;;;;;;;9.70;55.36;102562.03;5092468;28;20052;-56
2022/05/09 02:20:32;;;;;;;3.65;1.02;;;;;;;9.72;55.01;102555.16;5092397;28;20083;-52
2022/05/09 02:23:12;;;;;;;6.75;1.20;;;;;;;9.75;55.34;102550.06;5092865;28;20055;-57
2022/05/09 02:25:43;;;;;;;6.20;1.10;;;;;;;9.74;55.37;102556.06;5092653;28;20088;-56
2022/05/09 02:28:13;;;;;;;4.78;1.00;;;;;;;9.75;54.81;102556.13;5092485;28;20044;-57
2022/05/09 02:30:49;;;;;;;7.97;1.25;;;;;;;9.76;55.45;102559.59;5091660;28;20510;-56
2022/05/09 02:33:18;;;;;;;4.25;1.20;;;;;;;9.73;55.25;102554.31;5092428;28;20044;-56
2022/05/09 02:35:48;;;;;;;5.95;1.08;;;;;;;9.74;54.78;102563.84;5092122;28;20409;-53
2022/05/09 02:38:28;;;;;;;2.28;0.90;;;;;;;9.75;55.75;102565.59;5092019;28;20052;-55
2022/05/09 02:40:58;;;;;;;4.75;0.82;;;;;;;9.75;54.96;102563.00;5098382;28;20361;-56
2022/05/09 02:43:28;;;;;;;4.97;0.88;;;;;;;9.76;55.12;102567.34;5109999;28;20398;-56
2022/05/09 02:46:03;;;;;;;5.10;0.88;;;;;;;9.75;55.02;102570.78;5071725;28;20084;-55
2022/05/09 02:48:35;;;;;;;4.55;1.05;;;;;;;9.72;54.75;102565.53;5072188;28;20044;-57
2022/05/09 02:51:03;;;;;;;2.88;1.00;;;;;;;9.72;55.31;102575.88;5072423;28;20136;-55
2022/05/09 02:53:34;;;;;;;4.00;0.80;;;;;;;9.69;55.21;102586.16;5085808;28;20454;-56
2022/05/09 02:56:11;;;;;;;3.13;0.82;;;;;;;9.63;55.33;102570.50;5095961;28;20043;-56
2022/05/09 02:58:40;;;;;;;2.25;0.60;;;;;;;9.58;55.90;102585.03;5096100;28;20048;-56
2022/05/09 03:01:07;;;;;;;2.78;1.00;;;;;;;9.55;55.83;102582.38;5093967;28;20048;-56
2022/05/09 03:06:23;;;;;;;3.28;0.90;;;;;;;9.48;55.37;102584.81;5095900;28;20055;-54
2022/05/09 03:08:58;;;;;;;3.95;1.08;;;;;;;9.46;55.44;102591.66;5094611;28;20126;-57
2022/05/09 03:11:27;;;;;;;3.10;0.90;;;;;;;9.45;55.79;102591.63;5095993;28;20055;-55
2022/05/09 03:13:55;;;;;;;4.28;0.90;;;;;;;9.43;55.72;102599.34;5095450;28;20472;-53
2022/05/09 03:16:23;;;;;;;4.53;0.90;;;;;;;9.42;55.88;102592.41;5095747;28;20438;-56
2022/05/09 03:18:51;;;;;;;3.67;0.90;;;;;;;9.39;56.02;102597.50;5095541;28;20044;-56
2022/05/09 03:21:28;;;;;;;2.92;0.93;;;;;;;9.40;55.98;102599.28;5095691;28;20060;-56
2022/05/09 03:24:00;;;;;;;5.45;0.95;;;;;;;9.40;55.65;102599.28;5095790;28;20056;-56
2022/05/09 03:26:28;;;;;;;3.72;0.80;;;;;;;9.40;56.20;102599.28;5095382;28;20449;-56
2022/05/09 03:28:58;;;;;;;2.30;0.88;;;;;;;9.40;55.95;102603.56;5095544;28;20130;-56
2022/05/09 03:31:29;;;;;;;4.72;1.10;;;;;;;9.40;55.72;102604.44;5095496;28;20056;-55
2022/05/09 03:34:00;;;;;;;2.85;0.85;;;;;;;9.42;55.83;102612.25;5095160;28;20423;-54
2022/05/09 03:36:28;;;;;;;2.90;1.20;;;;;;;9.42;55.88;102605.34;5095388;28;20094;-55
2022/05/09 03:39:12;;;;;;;3.90;0.80;;;;;;;9.46;55.64;102614.94;5095156;28;20048;-54
2022/05/09 03:41:40;;;;;;;2.90;1.00;;;;;;;9.50;56.11;102615.91;5107810;28;20056;-53
2022/05/09 03:44:11;;;;;;;7.32;1.00;;;;;;;9.59;55.93;102623.03;5115303;28;20051;-55
2022/05/09 03:46:41;;;;;;;2.30;0.73;;;;;;;9.70;55.46;102613.81;5115108;28;20056;-53
2022/05/09 03:49:11;;;;;;;2.28;1.08;;;;;;;9.84;55.42;102622.81;5115312;28;20136;-53
2022/05/09 03:51:39;;;;;;;6.97;1.30;;;;;;;9.95;54.95;102611.00;5115258;28;20059;-56
2022/05/09 03:54:22;;;;;;;6.18;1.50;;;;;;;10.15;54.44;102626.16;5082857;28;20048;-55
2022/05/09 03:56:49;;;;;;;3.92;1.58;;;;;;;10.34;54.24;102625.75;5075615;28;20437;-54
2022/05/09 03:59:18;;;;;;;6.93;1.50;;;;;;;10.56;54.07;102622.81;5094439;28;20052;-54
2022/05/09 04:01:46;;;;;;;5.35;1.40;;;;;;;10.79;52.90;102625.88;5095159;28;20052;-56
2022/05/09 04:04:16;;;;;;;6.38;2.00;;;;;;;11.01;52.53;102627.22;5086593;28;20056;-53
2022/05/09 04:06:45;;;;;;;5.05;2.10;;;;;;;11.22;51.65;102626.75;5094844;28;20152;-53
2022/05/09 04:09:27;;;;;;;4.60;1.33;;;;;;;11.43;51.02;102632.34;5094804;28;20040;-56
2022/05/09 04:11:57;;;;;;;5.22;1.52;;;;;;;11.59;50.61;102628.31;5094797;28;20048;-56
2022/05/09 04:17:07;;;;;;;6.50;1.73;;;;;;;11.99;49.79;102627.31;5093120;28;20414;-56
2022/05/09 04:19:37;;;;;;;2.85;1.42;;;;;;;12.18;49.46;102631.06;5094613;28;20101;-54
2022/05/09 04:22:07;;;;;;;15.70;2.20;;;;;;;12.35;49.37;102634.78;5094472;28;20056;-56
2022/05/09 04:24:39;;;;;;;3.90;1.25;;;;;;;12.56;48.80;102629.03;5094431;28;20047;-56
2022/05/09 04:27:07;;;;;;;3.80;1.63;;;;;;;12.74;48.24;102634.47;5093984;28;20048;-56
2022/05/09 04:29:38;;;;;;;2.80;1.13;;;;;;;12.89;48.03;102636.38;5093885;28;20066;-53
2022/05/09 04:34:50;;;;;;;2.30;0.98;;;;;;;13.09;47.47;102647.94;5093717;28;20062;-54
2022/05/09 04:37:20;;;;;;;3.30;1.20;;;;;;;13.23;47.39;102641.16;5081732;28;20364;-53
2022/05/09 04:40:04;;;;;;;2.13;0.80;;;;;;;13.42;46.54;102651.78;5073728;28;20052;-56
2022/05/09 04:42:34;;;;;;;3.63;1.02;;;;;;;13.53;47.04;102650.19;5113322;28;20444;-52
2022/05/09 04:45:04;;;;;;;3.40;0.70;;;;;;;13.65;46.41;102652.91;5113909;28;20051;-52
2022/05/09 04:47:41;;;;;;;4.68;1.02;;;;;;;13.76;46.28;102653.00;5114438;28;20047;-55
2022/05/09 04:50:14;;;;;;;3.13;0.82;;;;;;;13.81;45.74;102656.50;5114252;28;20070;-56
2022/05/09 04:52:45;;;;;;;4.43;0.98;;;;;;;13.77;45.79;102660.81;5105075;28;20040;-55
2022/05/09 04:55:18;;;;;;;2.65;1.02;;;;;;;13.81;44.88;102660.00;5078641;28;20043;-55
2022/05/09 04:57:49;;;;;;;5.38;0.90;;;;;;;13.85;44.19;102664.38;5094126;28;20055;-55
2022/05/09 05:00:24;;;;;;;1.92;0.75;;;;;;;13.88;44.24;102676.56;5093893;28;20071;-55
2022/05/09 05:03:02;;;;;;;4.80;0.90;;;;;;;14.00;44.39;102673.16;5094060;28;20141;-55
2022/05/09 05:05:32;;;;;;;6.50;1.08;;;;;;;14.10;43.32;102669.81;5093810;28;20120;-55
2022/05/09 05:08:02;;;;;;;3.58;1.02;;;;;;;14.19;42.93;102675.09;5093893;28;20098;-54
2022/05/09 05:10:44;;;;;;;3.22;0.80;;;;;;;14.23;41.45;102669.03;5093524;28;20055;-52
2022/05/09 05:13:15;;;;;;;3.25;1.00;;;;;;;14.30;42.20;102673.44;5093600;28;20060;-52
2022/05/09 05:15:43;;;;;;;8.93;1.13;;;;;;;14.41;41.74;102676.97;5093467;28;20044;-55
2022/05/09 05:18:13;;;;;;;3.28;0.90;;;;;;;14.49;41.49;102672.72;5093462;28;20085;-53
2022/05/09 05:20:43;;;;;;;3.97;0.70;;;;;;;14.53;41.24;102671.88;5092613;28;20118;-53
2022/05/09 05:23:13;;;;;;;2.63;0.77;;;;;;;14.68;40.64;102681.53;5094025;28;20056;-52
2022/05/09 05:26:00;;;;;;;4.45;0.95;;;;;;;14.76;38.01;102673.75;5093012;28;20059;-56
2022/05/09 05:28:28;;;;;;;2.58;0.90;;;;;;;14.80;38.87;102680.72;5093720;28;20079;-53
2022/05/09 05:30:56;;;;;;;2.95;0.80;;;;;;;14.87;38.96;102681.63;5093374;28;20043;-54
2022/05/09 05:33:26;;;;;;;3.65;0.80;;;;;;;14.99;38.47;102686.91;5093347;28;20052;-53
2022/05/09 05:35:56;;;;;;;1.90;0.70;;;;;;;15.08;38.20;102687.81;5093229;28;20341;-56
2022/05/09 05:38:27;;;;;;;3.28;0.73;;;;;;;15.19;37.65;102684.41;5092936;28;20670;-56
2022/05/09 05:40:58;;;;;;;4.47;0.55;;;;;;;15.27;36.91;102677.44;5099236;28;20501;-56
2022/05/09 05:43:27;;;;;;;27.52;2.42;;;;;;;15.33;35.75;102682.69;5113258;28;20058;-56
2022/05/09 05:46:05;;;;;;;1.50;0.70;;;;;;;15.28;35.40;102687.03;5105280;28;20146;-55
2022/05/09 05:48:35;;;;;;;2.72;0.60;;;;;;;15.24;35.30;102682.66;5093087;28;20048;-55
2022/05/09 05:51:05;;;;;;;6.00;1.08;;;;;;;15.24;35.17;102682.66;5092641;28;20058;-55
2022/05/09 05:53:36;;;;;;;4.80;0.70;;;;;;;15.25;34.42;102689.63;5093064;28;20078;-54
2022/05/09 05:56:17;;;;;;;3.67;0.88;;;;;;;15.29;33.36;102694.00;5092923;28;20090;-52
2022/05/09 05:58:47;;;;;;;2.55;0.50;;;;;;;15.29;34.18;102676.59;5093097;28;20051;-55
2022/05/09 06:01:16;;;;;;;2.90;0.55;;;;;;;15.35;34.40;102686.19;5092816;28;20417;-55
2022/05/09 06:03:44;;;;;;;1.33;0.55;;;;;;;15.46;34.42;102692.31;5092959;28;20056;-55
2022/05/09 06:06:13;;;;;;;3.70;0.50;;;;;;;15.59;33.62;102694.09;5074963;28;20044;-54
2022/05/09 06:08:43;;;;;;;1.42;0.50;;;;;;;15.65;34.11;102688.03;5083284;28;20467;-52
2022/05/09 06:11:23;;;;;;;6.57;0.98;;;;;;;15.81;32.69;102696.78;5088549;28;20052;-52
2022/05/09 06:13:51;;;;;;;2.83;0.80;;;;;;;15.87;33.12;102689.81;5091019;28;20113;-52
2022/05/09 06:16:21;;;;;;;2.05;0.50;;;;;;;15.86;33.12;102695.03;5091974;28;20056;-52
2022/05/09 06:18:52;;;;;;;3.25;0.57;;;;;;;15.81;33.14;102686.31;5090968;28;20051;-55
2022/05/09 06:21:21;;;;;;;3.63;0.60;;;;;;;15.84;32.76;102697.66;5091718;28;20125;-55
2022/05/09 06:24:09;;;;;;;1.13;0.45;;;;;;;15.93;33.27;102687.19;5089539;28;20056;-54
2022/05/09 06:26:40;;;;;;;1.98;0.40;;;;;;;16.10;33.15;102685.44;5070949;28;20056;-53
2022/05/09 06:29:08;;;;;;;3.35;0.57;;;;;;;16.24;32.52;102688.06;5080206;28;20045;-56
2022/05/09 06:31:44;;;;;;;2.30;0.57;;;;;;;16.34;32.45;102683.69;5098000;28;20048;-55
2022/05/09 06:36:53;;;;;;;2.95;0.85;;;;;;;16.51;32.01;102683.66;5100207;28;20044;-55
2022/05/09 06:39:22;;;;;;;2.25;0.55;;;;;;;16.61;31.64;102677.53;5093583;28;20055;-53
2022/05/09 06:41:59;;;;;;;1.13;0.50;;;;;;;16.74;31.44;102674.06;5110093;28;20059;-55
2022/05/09 06:44:27;;;;;;;1.83;0.60;;;;;;;16.84;30.45;102682.75;5099633;28;20051;-57
2022/05/09 06:46:54;;;;;;;1.67;0.50;;;;;;;16.84;30.70;102685.38;5110629;28;20059;-57
2022/05/09 06:49:20;;;;;;;2.55;0.77;;;;;;;16.85;30.44;102687.97;5097104;28;20044;-55
2022/05/09 06:51:51;;;;;;;44.63;3.92;;;;;;;16.83;30.40;102694.97;5111678;28;20364;-56
2022/05/09 06:54:22;;;;;;;2.40;0.73;;;;;;;16.85;30.28;102687.97;5104820;28;20131;-57
2022/05/09 06:56:56;;;;;;;3.53;1.30;;;;;;;16.82;29.97;102697.59;5110492;28;20483;-52
2022/05/09 06:59:22;;;;;;;2.97;0.63;;;;;;;16.83;30.04;102694.09;5089734;28;20487;-54
2022/05/09 07:01:51;;;;;;;6.38;1.40;;;;;;;16.85;30.04;102695.84;5111310;28;20054;-52
2022/05/09 07:04:21;;;;;;;1.45;0.70;;;;;;;16.91;29.99;102693.19;5104570;28;20460;-55
2022/05/09 07:06:51;;;;;;;2.92;0.60;;;;;;;16.93;29.87;102690.56;5109462;28;20055;-53
2022/05/09 07:09:18;;;;;;;1.70;0.52;;;;;;;16.98;30.16;102692.28;5098899;28;20062;-54
2022/05/09 07:11:55;;;;;;;2.60;0.70;;;;;;;17.15;30.43;102697.44;5096304;28;20395;-55
2022/05/09 07:14:35;;;;;;;2.63;0.60;;;;;;;17.33;29.63;102691.28;5086658;28;20078;-56
2022/05/09 07:17:05;;;;;;;3.00;0.50;;;;;;;17.46;29.90;102698.19;5086938;28;20071;-54
2022/05/09 07:19:35;;;;;;;3.80;0.90;;;;;;;17.51;29.76;102696.41;5089692;28;20076;-56
2022/05/09 07:22:02;;;;;;;3.60;0.47;;;;;;;17.53;29.46;102694.66;5096985;28;20047;-54
2022/05/09 07:24:33;;;;;;;2.50;0.60;;;;;;;17.54;29.25;102696.38;5105173;28;20052;-56
2022/05/09 07:27:02;;;;;;;5.55;0.73;;;;;;;17.57;29.64;102691.13;5098334;28;20063;-55
2022/05/09 07:29:39;;;;;;;2.65;0.60;;;;;;;17.68;29.63;102693.69;5089385;28;20044;-54
2022/05/09 07:32:09;;;;;;;2.40;0.70;;;;;;;17.85;29.87;102696.22;5108469;28;20346;-56
2022/05/09 07:34:38;;;;;;;1.75;0.57;;;;;;;18.07;29.53;102697.78;5106003;28;20467;-56
2022/05/09 07:37:08;;;;;;;1.92;0.60;;;;;;;18.19;28.94;102688.94;5100040;28;20083;-54
2022/05/09 07:42:16;;;;;;;3.03;0.50;;;;;;;18.27;28.82;102692.38;5105908;28;20867;-55
2022/05/09 07:44:52;;;;;;;1.85;0.60;;;;;;;18.40;28.74;102694.00;5102858;28;20052;-55
2022/05/09 07:47:22;;;;;;;5.88;0.70;;;;;;;18.57;28.74;102701.69;5111732;28;20460;-54
2022/05/09 07:49:50;;;;;;;1.20;0.55;;;;;;;18.60;28.63;102692.03;5099692;28;20043;-52
2022/05/09 07:52:20;;;;;;;1.25;0.73;;;;;;;18.69;28.54;102690.22;5106039;28;20109;-55
2022/05/09 07:54:51;;;;;;;2.90;0.82;;;;;;;18.77;28.80;102696.28;5106271;28;20063;-56
2022/05/09 07:57:21;;;;;;;2.65;0.73;;;;;;;18.99;28.82;102691.63;5111194;28;20055;-57
2022/05/09 07:59:58;;;;;;;3.67;0.60;;;;;;;19.23;28.08;102697.44;5090916;28;20044;-52
2022/05/09 08:02:26;;;;;;;2.30;0.77;;;;;;;19.44;28.11;102696.31;5104849;28;20567;-55
2022/05/09 08:04:54;;;;;;;4.07;0.65;;;;;;;19.54;27.71;102691.81;5097174;28;20448;-51
2022/05/09 08:07:26;;;;;;;5.38;0.85;;;;;;;19.71;27.82;102688.91;5106268;28;20052;-56
2022/05/09 08:09:53;;;;;;;2.30;1.00;;;;;;;19.88;27.74;102686.91;5110445;28;20127;-54
2022/05/09 08:12:23;;;;;;;16.33;1.88;;;;;;;19.91;27.36;102686.84;5101002;28;20058;-54
2022/05/09 08:14:56;;;;;;;3.97;0.90;;;;;;;19.95;27.42;102688.53;5108077;28;20048;-54
2022/05/09 08:17:26;;;;;;;2.92;0.80;;;;;;;19.95;27.15;102693.81;5098024;28;20167;-54
2022/05/09 08:20:03;;;;;;;2.47;0.75;;;;;;;19.97;27.26;102689.38;5109916;28;20051;-54
2022/05/09 08:22:31;;;;;;;1.63;0.52;;;;;;;19.96;27.14;102685.03;5104759;28;20047;-57
2022/05/09 08:25:01;;;;;;;0.75;0.40;;;;;;;20.00;27.00;102686.69;5102843;28;20054;-55
2022/05/09 08:27:31;;;;;;;2.05;0.70;;;;;;;20.01;27.05;102691.06;5096927;28;20074;-54
2022/05/09 08:30:13;;;;;;;3.70;1.00;;;;;;;19.96;26.32;102687.66;5107985;28;20036;-55
2022/05/09 08:32:42;;;;;;;2.15;0.75;;;;;;;19.97;27.07;102689.38;5106284;28;20048;-55
2022/05/09 08:35:10;;;;;;;4.28;0.90;;;;;;;20.04;27.06;102680.50;5098401;28;20048;-55
2022/05/09 08:37:43;;;;;;;1.95;0.60;;;;;;;20.00;27.01;102680.56;5110614;28;20059;-54
2022/05/09 08:40:13;;;;;;;1.98;0.50;;;;;;;20.00;27.33;102684.06;5093810;28;20059;-55
2022/05/09 08:42:46;;;;;;;4.70;0.90;;;;;;;19.94;27.94;102680.69;5102217;28;20131;-53
2022/05/09 08:45:26;;;;;;;1.60;0.70;;;;;;;19.93;27.23;102700.88;5109759;28;20073;-57
2022/05/09 08:48:25;;;;;;;16.17;1.48;;;;;;;19.85;27.51;102697.50;5084542;28;20050;-55
2022/05/09 08:51:26;;;;;;;5.97;0.80;;;;;;;19.58;28.04;102697.88;5081182;28;20052;-57
2022/05/09 08:54:03;;;;;;;5.05;0.82;;;;;;;19.47;28.20;102693.63;5099170;28;20120;-56
2022/05/09 08:56:38;;;;;;;5.40;1.05;;;;;;;19.47;28.44;102693.63;5107623;28;20399;-55
2022/05/09 08:59:11;;;;;;;;;;;;;;;19.29;27.75;102693.91;5098216;28;20067;-53
2022/05/09 09:01:47;;;;;;;2.67;0.88;;;;;;;19.29;28.37;102688.63;5113366;28;19923;-55
2022/05/09 09:07:46;;;;;;;3.65;0.82;;;;;;;19.00;28.01;102694.25;5107001;28;20051;-55
2022/05/09 09:10:40;;;;;;;1.77;0.77;;;;;;;19.14;28.15;102696.69;5093210;28;20075;-55
2022/05/09 09:13:23;;;;;;;11.10;1.52;;;;;;;19.16;28.42;102687.91;5108235;28;20083;-56
2022/05/09 09:16:02;;;;;;;14.88;1.65;;;;;;;19.27;28.10;102687.78;5083262;28;20052;-56
2022/05/09 09:19:09;;;;;;;5.22;0.82;;;;;;;19.14;27.10;102697.56;5112068;28;20055;-56
2022/05/09 09:22:00;;;;;;;2.05;0.55;;;;;;;19.02;26.60;102696.84;5096615;28;20051;-56
2022/05/09 09:24:46;;;;;;;1.58;0.60;;;;;;;18.81;28.00;102688.34;5103390;28;20060;-57
2022/05/09 09:27:33;;;;;;;4.93;0.93;;;;;;;18.82;28.16;102691.84;5109710;28;20056;-56
2022/05/09 09:30:10;;;;;;;2.92;0.70;;;;;;;18.83;28.47;102686.56;5085511;28;20400;-55
2022/05/09 09:32:43;;;;;;;5.32;0.88;;;;;;;18.82;28.82;102679.59;5101887;28;20083;-53
2022/05/09 09:35:32;;;;;;;3.63;0.90;;;;;;;18.94;28.29;102682.94;5106718;28;20055;-53
2022/05/09 09:38:09;;;;;;;1.75;0.60;;;;;;;19.07;28.61;102681.91;5087296;28;20047;-54
2022/05/09 09:40:38;;;;;;;2.67;0.63;;;;;;;19.16;28.35;102679.16;5088138;28;20047;-52
2022/05/09 09:43:09;;;;;;;3.63;0.60;;;;;;;19.26;28.42;102680.78;5108575;28;20094;-55
2022/05/09 09:45:40;;;;;;;3.92;0.90;;;;;;;19.24;28.58;102677.28;5095578;28;20044;-52
2022/05/09 09:48:12;;;;;;;3.80;0.80;;;;;;;19.16;27.76;102679.16;5105288;28;20040;-52
2022/05/09 09:50:56;;;;;;;4.25;0.77;;;;;;;19.04;26.74;102692.44;5103618;28;20078;-55
2022/05/09 09:53:37;;;;;;;2.22;0.60;;;;;;;18.88;26.99;102679.50;5095987;28;20082;-53
2022/05/09 09:56:12;;;;;;;2.30;1.10;;;;;;;18.78;27.42;102677.88;5107424;28;20047;-55
2022/05/09 09:58:42;;;;;;;4.70;0.65;;;;;;;18.69;27.83;102672.72;5101161;28;20067;-54
2022/05/09 10:01:13;;;;;;;3.13;0.65;;;;;;;18.54;27.98;102664.97;5093103;28;20051;-55
2022/05/09 10:03:43;;;;;;;4.70;1.02;;;;;;;18.41;27.58;102672.13;5099456;28;20139;-55
2022/05/09 10:06:21;;;;;;;2.92;0.80;;;;;;;18.30;27.18;102668.72;5111558;28;20078;-54
2022/05/09 10:09:00;;;;;;;2.75;0.68;;;;;;;18.33;27.92;102662.56;5108920;28;20055;-55
2022/05/09 10:11:32;;;;;;;2.72;0.70;;;;;;;18.39;27.57;102671.25;5112709;28;20139;-53
2022/05/09 10:14:06;;;;;;;7.63;0.80;;;;;;;18.39;27.59;102658.13;5110654;28;20409;-53
2022/05/09 10:16:41;;;;;;;1.35;0.68;;;;;;;18.50;27.45;102660.63;5107712;28;20052;-53
2022/05/09 10:19:14;;;;;;;27.52;2.70;;;;;;;18.50;27.14;102663.25;5100912;28;20052;-53
2022/05/09 10:24:55;;;;;;;4.57;0.73;;;;;;;18.46;26.52;102656.31;5097188;28;20059;-56
2022/05/09 10:27:31;;;;;;;1.58;0.50;;;;;;;18.42;26.71;102657.22;5102127;28;20151;-53
2022/05/09 10:30:05;;;;;;;4.63;0.88;;;;;;;18.51;26.76;102657.13;5096147;28;20413;-52
2022/05/09 10:32:52;;;;;;;2.38;0.68;;;;;;;18.62;25.73;102660.53;5075850;28;20067;-52
2022/05/09 10:35:26;;;;;;;3.58;0.68;;;;;;;18.66;26.74;102656.13;5094938;28;20058;-51
2022/05/09 10:38:12;;;;;;;3.03;0.70;;;;;;;18.69;25.49;102656.94;5101392;28;20772;-52
2022/05/09 10:40:44;;;;;;;3.47;0.50;;;;;;;18.61;26.28;102653.50;5102002;28;20364;-55
2022/05/09 10:43:21;;;;;;;1.65;0.40;;;;;;;18.68;26.24;102651.72;5099917;28;20051;-50
2022/05/09 10:45:51;;;;;;;1.23;0.50;;;;;;;18.63;25.17;102651.75;5084340;28;20051;-55
2022/05/09 10:48:28;;;;;;;2.42;0.70;;;;;;;18.38;25.36;102639.78;5107297;28;20052;-52
2022/05/09 10:50:59;;;;;;;1.45;0.55;;;;;;;18.38;25.34;102648.50;5109642;28;20478;-53
2022/05/09 10:53:41;;;;;;;3.45;0.63;;;;;;;18.48;24.49;102644.03;5097713;28;20158;-56
2022/05/09 10:56:15;;;;;;;2.42;0.63;;;;;;;18.55;24.74;102648.31;5108650;28;20083;-56
2022/05/09 10:58:59;;;;;;;4.15;0.70;;;;;;;18.60;24.63;102647.38;5107244;28;20502;-54
2022/05/09 11:01:34;;;;;;;5.38;0.70;;;;;;;18.59;24.44;102647.41;5098819;28;20109;-56
2022/05/09 11:04:09;;;;;;;1.35;0.60;;;;;;;18.39;24.25;102636.25;5109582;28;20052;-55
2022/05/09 11:06:53;;;;;;;3.47;0.60;;;;;;;18.12;23.65;102633.00;5107174;28;20048;-55
2022/05/09 11:09:50;;;;;;;1.48;0.75;;;;;;;17.94;24.16;102630.56;5095880;28;20052;-55
2022/05/09 11:12:54;;;;;;;1.73;0.63;;;;;;;17.85;23.64;102631.50;5092794;28;20158;-55
2022/05/09 11:15:32;;;;;;;2.45;0.60;;;;;;;17.81;25.31;102632.44;5098452;28;20088;-56
2022/05/09 11:18:30;;;;;;;1.65;0.82;;;;;;;17.94;24.91;102630.56;5109534;28;20044;-55
2022/05/09 11:21:16;;;;;;;1.15;0.40;;;;;;;17.91;24.35;102634.09;5109460;28;20461;-55
2022/05/09 11:23:58;;;;;;;5.47;0.73;;;;;;;17.66;25.26;102625.53;5082952;28;20047;-56
2022/05/09 11:26:50;;;;;;;4.03;0.55;;;;;;;17.57;24.82;102628.19;5105712;28;20044;-54
2022/05/09 11:29:43;;;;;;;2.80;0.70;;;;;;;17.47;25.25;102621.28;5112319;28;20059;-53
2022/05/09 11:32:32;;;;;;;2.25;0.50;;;;;;;17.42;25.18;102619.56;5102603;28;20043;-53
2022/05/09 11:35:15;;;;;;;3.22;0.90;;;;;;;17.46;25.46;102619.53;5099509;28;20063;-57
2022/05/09 11:37:57;;;;;;;1.67;0.68;;;;;;;17.54;25.69;102617.72;5080665;28;20097;-55
2022/05/09 11:40:31;;;;;;;2.83;0.80;;;;;;;17.52;25.95;102619.47;5097632;28;20047;-55
2022/05/09 11:43:34;;;;;;;6.82;0.95;;;;;;;17.51;24.85;102625.63;5100841;28;20078;-53
2022/05/09 11:46:18;;;;;;;2.92;0.60;;;;;;;17.26;25.30;102622.28;5087058;28;20052;-51
2022/05/09 11:49:02;;;;;;;4.90;0.82;;;;;;;17.10;24.76;102617.13;5102567;28;20048;-51
2022/05/09 11:51:39;;;;;;;2.75;0.57;;;;;;;16.86;25.07;102612.91;5111679;28;20043;-52
2022/05/09 11:54:10;;;;;;;1.50;0.73;;;;;;;16.66;26.04;102623.47;5101799;28;20043;-52
2022/05/09 11:56:43;;;;;;;0.80;0.50;;;;;;;16.65;25.88;102611.22;5099992;28;20052;-51
2022/05/09 11:59:21;;;;;;;3.67;0.80;;;;;;;16.74;26.00;102613.81;5110909;28;20408;-54
2022/05/09 12:02:03;;;;;;;3.75;0.70;;;;;;;16.68;25.66;102611.22;5083800;28;20066;-53
2022/05/09 12:04:40;;;;;;;2.47;0.90;;;;;;;16.55;24.17;102612.09;5104256;28;20048;-53
2022/05/09 12:07:46;;;;;;;3.72;0.80;;;;;;;16.37;25.26;102600.81;5099222;28;20052;-52
2022/05/09 12:10:31;;;;;;;9.32;1.33;;;;;;;16.47;25.37;102613.88;5084685;28;20048;-57
2022/05/09 12:13:00;;;;;;;5.13;0.95;;;;;;;16.46;25.47;102609.50;5109156;28;20063;-54
2022/05/09 12:15:54;;;;;;;4.28;0.80;;;;;;;16.52;24.99;102609.50;5083895;28;20414;-57
2022/05/09 12:18:28;;;;;;;6.72;0.98;;;;;;;16.42;25.83;102598.19;5086626;28;20048;-57
2022/05/09 12:21:17;;;;;;;3.55;0.80;;;;;;;16.30;25.75;102606.94;5104452;28;20051;-57
2022/05/09 12:24:18;;;;;;;2.65;0.63;;;;;;;16.19;25.94;102603.47;5112947;28;20058;-58
2022/05/09 12:26:47;;;;;;;4.45;0.80;;;;;;;16.03;26.68;102606.97;5060906;28;20051;-57